Time;durP1;ratioP1;P1;durP2;ratioP2;P2;SDS_P1;SDS_P2;PMS_P1;PMS_P2;Temp;Humidity;BMP_temperature;BMP_pressure;BME280_temperature;BME280_humidity;BME280_pressure;Samples;Min_cycle;Max_cycle;Signal;HPM_P1;HPM_P2
2021/09/03 00:01:10;;;;;;;1.95;1.23;;;15.60;80.60;;;;;;5134163;28;20098;-76
2021/09/03 00:03:36;;;;;;;2.30;1.70;;;15.60;80.70;;;;;;5134150;28;20098;-75
2021/09/03 00:06:02;;;;;;;2.05;1.48;;;15.50;80.80;;;;;;5133851;28;20024;-75
2021/09/03 00:08:27;;;;;;;2.25;1.65;;;15.50;80.80;;;;;;5134138;28;20073;-75
2021/09/03 00:10:53;;;;;;;1.30;1.20;;;15.50;80.90;;;;;;5133745;28;20016;-76
2021/09/03 00:13:19;;;;;;;1.98;1.70;;;15.50;81.00;;;;;;5133811;28;20033;-76
2021/09/03 00:15:45;;;;;;;1.55;1.33;;;15.40;80.90;;;;;;5134231;28;20456;-76
2021/09/03 00:18:10;;;;;;;2.20;1.60;;;15.50;81.00;;;;;;5133967;28;20027;-75
2021/09/03 00:20:36;;;;;;;2.03;1.48;;;15.40;81.00;;;;;;5133943;28;20050;-75
2021/09/03 00:23:02;;;;;;;1.83;1.40;;;15.40;81.00;;;;;;5134060;28;20031;-77
2021/09/03 00:25:28;;;;;;;2.40;1.60;;;15.40;81.10;;;;;;5133595;28;20047;-76
2021/09/03 00:27:53;;;;;;;1.98;1.60;;;15.40;81.20;;;;;;5134170;28;20056;-76
2021/09/03 00:30:19;;;;;;;2.17;1.55;;;15.40;81.20;;;;;;5134010;28;20019;-75
2021/09/03 00:32:45;;;;;;;1.90;1.45;;;15.30;81.20;;;;;;5135824;27;20034;-75
2021/09/03 00:35:11;;;;;;;1.52;1.35;;;15.30;81.20;;;;;;5137282;27;20027;-75
2021/09/03 00:37:38;;;;;;;2.92;1.77;;;15.30;81.40;;;;;;5137876;27;20353;-75
2021/09/03 00:40:05;;;;;;;2.17;1.48;;;15.30;81.40;;;;;;5137242;27;20468;-76
2021/09/03 00:42:31;;;;;;;2.17;1.50;;;15.20;81.40;;;;;;5119307;27;20395;-75
2021/09/03 00:44:57;;;;;;;2.40;1.77;;;15.20;81.50;;;;;;5137922;27;20020;-76
2021/09/03 00:47:22;;;;;;;2.63;2.00;;;15.20;81.60;;;;;;5137612;27;20030;-76
2021/09/03 00:49:48;;;;;;;1.92;1.40;;;15.20;81.60;;;;;;5137683;27;20509;-76
2021/09/03 00:52:14;;;;;;;2.08;1.60;;;15.20;81.70;;;;;;5119445;27;20115;-76
2021/09/03 00:54:40;;;;;;;2.17;1.65;;;15.10;81.60;;;;;;5137015;27;20098;-75
2021/09/03 00:57:06;;;;;;;2.45;1.60;;;15.10;81.70;;;;;;5119050;27;20434;-75
2021/09/03 00:59:32;;;;;;;3.53;2.00;;;15.10;82.40;;;;;;5137438;27;20072;-76
2021/09/03 01:01:58;;;;;;;2.60;1.90;;;15.00;81.80;;;;;;5137227;27;20031;-75
2021/09/03 01:04:23;;;;;;;2.28;1.60;;;15.00;81.90;;;;;;5137058;27;20023;-75
2021/09/03 01:06:49;;;;;;;2.42;2.03;;;15.00;81.90;;;;;;5137331;27;20020;-75
2021/09/03 01:09:14;;;;;;;4.70;1.75;;;15.00;82.00;;;;;;5136852;27;20023;-76
2021/09/03 01:11:40;;;;;;;1.55;1.45;;;14.90;82.00;;;;;;5137244;27;20496;-76
2021/09/03 01:14:05;;;;;;;2.95;1.95;;;14.90;82.10;;;;;;5136927;27;20031;-74
2021/09/03 01:16:31;;;;;;;3.00;1.92;;;14.90;82.20;;;;;;5137188;27;20379;-76
2021/09/03 01:18:58;;;;;;;2.33;2.00;;;14.90;82.20;;;;;;5136827;27;20403;-76
2021/09/03 01:21:24;;;;;;;1.83;1.60;;;14.80;82.30;;;;;;5136489;27;20035;-76
2021/09/03 01:23:49;;;;;;;2.05;1.83;;;14.80;82.30;;;;;;5136702;27;20349;-77
2021/09/03 01:26:15;;;;;;;2.47;1.48;;;14.80;82.40;;;;;;5136848;27;20513;-76
2021/09/03 01:28:40;;;;;;;3.20;1.70;;;14.80;82.40;;;;;;5136918;27;20076;-76
2021/09/03 01:31:06;;;;;;;1.88;1.55;;;14.80;82.40;;;;;;5136625;27;20016;-75
2021/09/03 01:33:32;;;;;;;1.95;1.58;;;14.80;82.50;;;;;;5136797;27;20486;-75
2021/09/03 01:35:57;;;;;;;2.10;1.52;;;14.80;82.50;;;;;;5135672;27;20019;-75
2021/09/03 01:38:23;;;;;;;2.85;1.58;;;14.80;82.50;;;;;;5136815;27;20027;-75
2021/09/03 01:40:49;;;;;;;2.58;1.60;;;14.70;82.50;;;;;;5136833;27;20015;-75
2021/09/03 01:43:15;;;;;;;2.35;1.73;;;14.70;82.50;;;;;;5117617;27;20035;-76
2021/09/03 01:45:40;;;;;;;2.65;1.85;;;14.70;82.50;;;;;;5136023;27;20512;-75
2021/09/03 01:48:06;;;;;;;2.33;1.70;;;14.70;82.60;;;;;;5117982;27;20031;-76
2021/09/03 01:50:32;;;;;;;1.73;1.50;;;14.70;82.60;;;;;;5135948;27;20468;-74
2021/09/03 01:52:57;;;;;;;2.28;1.83;;;14.70;82.60;;;;;;5136508;27;20100;-75
2021/09/03 01:55:23;;;;;;;2.55;1.40;;;14.70;82.70;;;;;;5117928;27;20467;-75
2021/09/03 01:57:49;;;;;;;3.42;2.00;;;14.70;82.70;;;;;;5136246;27;20026;-75
2021/09/03 02:00:15;;;;;;;2.15;1.52;;;14.70;82.70;;;;;;5136298;27;20015;-75
2021/09/03 02:02:41;;;;;;;1.98;1.80;;;14.60;82.70;;;;;;5136156;27;20110;-75
2021/09/03 02:05:07;;;;;;;3.28;2.25;;;14.60;82.70;;;;;;5135030;27;20467;-76
2021/09/03 02:07:33;;;;;;;2.13;1.60;;;14.60;82.80;;;;;;5136117;27;20031;-76
2021/09/03 02:09:59;;;;;;;2.60;1.83;;;14.60;82.80;;;;;;5136077;27;20023;-75
2021/09/03 02:12:24;;;;;;;2.80;1.50;;;14.60;82.90;;;;;;5136052;27;20532;-76
2021/09/03 02:14:50;;;;;;;3.13;1.98;;;14.60;83.00;;;;;;5135830;27;20019;-76
2021/09/03 02:17:15;;;;;;;2.47;1.67;;;14.60;83.10;;;;;;5135735;27;20031;-76
2021/09/03 02:19:42;;;;;;;2.65;1.60;;;14.60;83.10;;;;;;5135205;27;20047;-74
2021/09/03 02:22:07;;;;;;;3.28;2.45;;;14.60;83.10;;;;;;5135782;27;20103;-76
2021/09/03 02:24:33;;;;;;;3.15;2.40;;;14.50;83.10;;;;;;5135741;27;20019;-75
2021/09/03 02:26:58;;;;;;;3.15;2.22;;;14.50;83.20;;;;;;5135463;27;20019;-75
2021/09/03 02:29:24;;;;;;;2.80;1.70;;;14.50;83.20;;;;;;5135708;27;20034;-75
2021/09/03 02:31:49;;;;;;;2.85;1.83;;;14.50;83.20;;;;;;5135788;27;20019;-76
2021/09/03 02:34:15;;;;;;;2.80;2.03;;;14.50;83.20;;;;;;5134768;27;20027;-75
2021/09/03 02:36:40;;;;;;;2.70;1.70;;;14.50;83.20;;;;;;5135489;27;20067;-75
2021/09/03 02:39:06;;;;;;;2.92;1.73;;;14.50;83.30;;;;;;5135705;27;20023;-74
2021/09/03 02:41:32;;;;;;;3.20;2.00;;;14.50;83.50;;;;;;5135366;27;20066;-75
2021/09/03 02:43:58;;;;;;;3.20;1.90;;;14.40;83.40;;;;;;5135368;27;20016;-77
2021/09/03 02:46:24;;;;;;;3.40;2.28;;;14.40;83.40;;;;;;5135292;27;20566;-76
2021/09/03 02:48:49;;;;;;;3.15;2.35;;;14.40;83.50;;;;;;5134840;27;20098;-75
2021/09/03 02:51:15;;;;;;;2.92;1.98;;;14.40;83.60;;;;;;5135437;27;20066;-76
2021/09/03 02:53:41;;;;;;;4.13;2.50;;;14.40;83.60;;;;;;5135377;27;20030;-75
2021/09/03 02:56:06;;;;;;;2.53;1.85;;;14.30;83.70;;;;;;5134944;27;20023;-76
2021/09/03 02:58:32;;;;;;;2.20;1.63;;;14.30;83.70;;;;;;5135409;27;20023;-75
2021/09/03 03:00:57;;;;;;;3.35;2.15;;;14.30;83.80;;;;;;5135119;27;20026;-75
2021/09/03 03:03:23;;;;;;;2.58;1.88;;;14.30;83.80;;;;;;5134422;27;20027;-75
2021/09/03 03:05:48;;;;;;;2.72;1.90;;;14.30;83.80;;;;;;5134828;27;20019;-74
2021/09/03 03:08:14;;;;;;;4.55;3.20;;;14.20;83.80;;;;;;5134917;27;20031;-75
2021/09/03 03:10:39;;;;;;;2.38;1.90;;;14.20;83.90;;;;;;5135033;27;20087;-76
2021/09/03 03:13:20;;;;;;;3.40;2.03;;;14.20;84.00;;;;;;5135106;27;20030;-76
2021/09/03 03:15:47;;;;;;;2.38;2.17;;;14.20;84.00;;;;;;5135027;27;20015;-75
2021/09/03 03:18:12;;;;;;;4.07;2.50;;;14.20;84.00;;;;;;5134402;27;20027;-75
2021/09/03 03:20:38;;;;;;;2.78;2.00;;;14.10;84.00;;;;;;5116281;27;20053;-75
2021/09/03 03:23:03;;;;;;;2.50;1.88;;;14.10;84.10;;;;;;5134742;27;20042;-75
2021/09/03 03:25:29;;;;;;;2.30;1.85;;;14.10;84.20;;;;;;5134428;27;20023;-73
2021/09/03 03:27:54;;;;;;;3.22;2.00;;;14.10;84.20;;;;;;5134659;27;20023;-76
2021/09/03 03:30:20;;;;;;;2.92;1.75;;;14.10;84.20;;;;;;5134644;27;20022;-75
2021/09/03 03:32:45;;;;;;;2.70;1.98;;;14.00;84.10;;;;;;5134129;27;20454;-77
2021/09/03 03:35:11;;;;;;;2.95;1.95;;;14.00;84.20;;;;;;5134231;27;20023;-76
2021/09/03 03:37:37;;;;;;;3.00;1.90;;;14.00;84.20;;;;;;5134373;27;20026;-76
2021/09/03 03:40:02;;;;;;;2.72;1.77;;;14.00;84.20;;;;;;5134352;28;20451;-75
2021/09/03 03:42:28;;;;;;;3.83;1.90;;;14.00;84.20;;;;;;5134378;27;20440;-76
2021/09/03 03:44:53;;;;;;;3.92;2.75;;;14.00;84.20;;;;;;5134651;27;20011;-76
2021/09/03 03:47:19;;;;;;;2.67;2.08;;;14.00;84.30;;;;;;5133992;27;20573;-76
2021/09/03 03:49:45;;;;;;;3.10;2.10;;;14.00;84.30;;;;;;5134311;27;20030;-75
2021/09/03 03:52:10;;;;;;;2.33;1.88;;;14.00;84.40;;;;;;5134332;27;20051;-75
2021/09/03 03:54:35;;;;;;;3.08;2.05;;;14.00;84.40;;;;;;5134256;28;20467;-75
2021/09/03 03:57:01;;;;;;;4.05;2.65;;;13.90;84.30;;;;;;5134527;28;20031;-75
2021/09/03 03:59:27;;;;;;;3.75;2.42;;;13.90;85.00;;;;;;5134217;28;20054;-75
2021/09/03 04:01:52;;;;;;;2.95;1.98;;;13.90;84.40;;;;;;5133682;28;20131;-76
2021/09/03 04:04:18;;;;;;;3.58;2.40;;;13.90;84.50;;;;;;5133826;28;20038;-75
2021/09/03 04:06:43;;;;;;;2.70;2.30;;;13.90;84.50;;;;;;5133741;27;20020;-75
2021/09/03 04:09:09;;;;;;;3.47;2.80;;;13.90;84.60;;;;;;5138339;27;20020;-76
2021/09/03 04:11:34;;;;;;;3.88;2.47;;;13.90;84.50;;;;;;5138621;27;20483;-75
2021/09/03 04:14:00;;;;;;;3.53;2.13;;;13.90;84.50;;;;;;5138284;27;20019;-76
2021/09/03 04:16:25;;;;;;;2.22;2.03;;;13.90;84.50;;;;;;5137390;27;20035;-74
2021/09/03 04:18:51;;;;;;;2.88;2.00;;;13.80;84.50;;;;;;5137925;27;20051;-73
2021/09/03 04:21:16;;;;;;;4.30;2.15;;;13.80;84.60;;;;;;5119691;27;20032;-75
2021/09/03 04:23:42;;;;;;;2.53;1.73;;;13.90;84.60;;;;;;5138150;27;20494;-75
2021/09/03 04:26:07;;;;;;;3.63;2.03;;;13.80;84.60;;;;;;5138092;27;20069;-75
2021/09/03 04:28:33;;;;;;;2.55;1.70;;;13.80;84.60;;;;;;5138064;27;20034;-75
2021/09/03 04:30:59;;;;;;;2.35;1.70;;;13.90;84.60;;;;;;5137506;27;20023;-76
2021/09/03 04:33:24;;;;;;;2.25;2.00;;;13.90;84.50;;;;;;5119234;27;20092;-76
2021/09/03 04:35:50;;;;;;;2.97;2.38;;;14.00;84.40;;;;;;5138134;27;20424;-75
2021/09/03 04:38:15;;;;;;;2.58;2.13;;;14.00;84.30;;;;;;5137756;27;20027;-75
2021/09/03 04:40:41;;;;;;;2.85;2.20;;;13.90;84.20;;;;;;5119413;27;20007;-75
2021/09/03 04:43:06;;;;;;;3.25;2.25;;;14.00;84.40;;;;;;5137648;27;20031;-75
2021/09/03 04:45:32;;;;;;;2.97;1.80;;;13.90;84.40;;;;;;5137242;27;20047;-76
2021/09/03 04:47:57;;;;;;;2.30;1.85;;;13.90;84.50;;;;;;5137673;27;20455;-74
2021/09/03 04:50:23;;;;;;;2.58;1.70;;;13.80;84.50;;;;;;5137696;27;20023;-76
2021/09/03 04:52:48;;;;;;;3.22;1.98;;;13.90;84.60;;;;;;5137886;27;20031;-75
2021/09/03 04:55:14;;;;;;;3.42;2.72;;;13.90;84.50;;;;;;5137586;27;20019;-75
2021/09/03 04:57:44;;;;;;;2.85;2.22;;;13.90;84.40;;;;;;5137513;27;20106;-75
2021/09/03 05:00:14;;;;;;;3.28;2.40;;;13.90;84.40;;;;;;5136538;27;20023;-74
2021/09/03 05:02:40;;;;;;;3.85;2.65;;;13.90;84.50;;;;;;5118854;27;20027;-74
2021/09/03 05:05:06;;;;;;;4.78;2.80;;;13.90;84.60;;;;;;5137272;27;20026;-76
2021/09/03 05:07:32;;;;;;;3.30;2.25;;;13.90;84.70;;;;;;5137125;27;20479;-74
2021/09/03 05:09:57;;;;;;;3.70;2.40;;;13.80;84.70;;;;;;5137052;27;20023;-74
2021/09/03 05:12:23;;;;;;;2.92;2.22;;;13.80;84.80;;;;;;5137162;27;20372;-75
2021/09/03 05:14:48;;;;;;;2.47;1.83;;;13.80;84.80;;;;;;5136696;27;20023;-75
2021/09/03 05:17:14;;;;;;;2.75;2.55;;;13.80;84.80;;;;;;5137064;27;20038;-75
2021/09/03 05:19:39;;;;;;;3.38;1.80;;;13.90;84.80;;;;;;5136495;27;20039;-75
2021/09/03 05:22:05;;;;;;;3.08;2.13;;;13.90;84.80;;;;;;5136837;27;20035;-75
2021/09/03 05:24:30;;;;;;;2.70;1.95;;;13.90;84.80;;;;;;5118498;27;20106;-76
2021/09/03 05:26:56;;;;;;;3.38;2.22;;;13.90;84.80;;;;;;5118281;27;20039;-75
2021/09/03 05:29:21;;;;;;;3.15;2.05;;;13.90;84.80;;;;;;5136391;27;20048;-76
2021/09/03 05:31:47;;;;;;;3.17;2.00;;;13.90;84.80;;;;;;5136580;27;20031;-74
2021/09/03 05:34:12;;;;;;;3.45;1.80;;;13.90;84.80;;;;;;5136729;27;20486;-76
2021/09/03 05:36:38;;;;;;;3.42;2.00;;;14.00;84.80;;;;;;5136676;27;20102;-75
2021/09/03 05:39:03;;;;;;;3.05;2.03;;;14.10;84.80;;;;;;5136675;27;20019;-75
2021/09/03 05:41:29;;;;;;;2.08;1.67;;;14.10;84.70;;;;;;5136472;27;20023;-75
2021/09/03 05:43:54;;;;;;;2.65;1.90;;;14.10;84.70;;;;;;5136024;27;20027;-76
2021/09/03 05:46:20;;;;;;;2.65;1.77;;;14.10;84.70;;;;;;5136445;27;20019;-76
2021/09/03 05:48:45;;;;;;;4.80;2.70;;;14.10;84.70;;;;;;5136485;27;20030;-76
2021/09/03 05:51:11;;;;;;;3.58;2.05;;;14.20;84.60;;;;;;5136409;27;20019;-76
2021/09/03 05:53:36;;;;;;;3.13;2.20;;;14.20;84.60;;;;;;5118025;27;20022;-75
2021/09/03 05:56:02;;;;;;;2.80;2.10;;;14.30;84.60;;;;;;5136212;27;20043;-75
2021/09/03 05:58:28;;;;;;;3.45;2.50;;;14.30;84.40;;;;;;5117260;27;20020;-74
2021/09/03 06:00:53;;;;;;;2.83;1.90;;;14.40;84.40;;;;;;5135993;27;20016;-75
2021/09/03 06:03:18;;;;;;;3.42;2.30;;;14.50;84.30;;;;;;5136006;27;20035;-76
2021/09/03 06:05:44;;;;;;;3.08;1.92;;;14.50;84.20;;;;;;5136079;27;20023;-76
2021/09/03 06:08:09;;;;;;;2.47;1.80;;;14.50;84.10;;;;;;5133869;27;20019;-75
2021/09/03 06:10:35;;;;;;;2.53;1.40;;;14.60;84.20;;;;;;5133468;27;20098;-76
2021/09/03 06:13:01;;;;;;;3.20;1.95;;;14.60;84.20;;;;;;5132848;27;20019;-76
2021/09/03 06:15:26;;;;;;;2.35;1.88;;;14.60;84.10;;;;;;5133256;27;20137;-76
2021/09/03 06:17:52;;;;;;;2.58;1.73;;;14.70;84.00;;;;;;5133229;27;20489;-75
2021/09/03 06:20:17;;;;;;;1.88;1.40;;;14.70;84.00;;;;;;5132132;27;20043;-75
2021/09/03 06:22:43;;;;;;;1.50;1.38;;;14.80;84.00;;;;;;5133095;27;20517;-74
2021/09/03 06:25:09;;;;;;;1.83;1.30;;;14.80;83.90;;;;;;5131464;27;20045;-77
2021/09/03 06:27:38;;;;;;;1.60;1.40;;;14.80;83.80;;;;;;5113942;27;20025;-75
2021/09/03 06:30:04;;;;;;;2.10;1.50;;;14.90;83.80;;;;;;5115219;27;20468;-74
2021/09/03 06:32:30;;;;;;;3.45;1.90;;;15.00;83.80;;;;;;5134913;27;20055;-74
2021/09/03 06:35:00;;;;;;;2.58;1.85;;;15.00;83.80;;;;;;5135159;27;20115;-82
2021/09/03 06:37:27;;;;;;;2.08;1.55;;;15.10;83.80;;;;;;5116910;27;20034;-77
2021/09/03 06:39:53;;;;;;;2.20;1.63;;;15.20;83.80;;;;;;5135352;27;20403;-77
2021/09/03 06:42:20;;;;;;;1.85;1.40;;;15.20;83.70;;;;;;5134621;27;20038;-76
2021/09/03 06:44:45;;;;;;;2.65;1.90;;;15.20;83.70;;;;;;5135314;27;20042;-76
2021/09/03 06:47:12;;;;;;;3.22;1.83;;;15.30;83.60;;;;;;5134854;27;20406;-76
2021/09/03 06:49:38;;;;;;;2.15;1.60;;;15.40;83.60;;;;;;5134907;27;20020;-76
2021/09/03 06:52:05;;;;;;;1.85;1.30;;;15.50;83.50;;;;;;5116157;27;20023;-76
2021/09/03 06:54:32;;;;;;;1.65;1.42;;;15.50;83.50;;;;;;5134716;27;20345;-75
2021/09/03 06:56:58;;;;;;;3.20;1.55;;;15.60;83.50;;;;;;5134270;27;20510;-75
2021/09/03 06:59:24;;;;;;;2.38;1.40;;;15.70;83.50;;;;;;5135031;27;20020;-77
2021/09/03 07:01:49;;;;;;;2.90;1.98;;;15.80;83.50;;;;;;5116397;27;20463;-76
2021/09/03 07:04:15;;;;;;;2.53;1.70;;;15.80;83.40;;;;;;5134975;27;20456;-75
2021/09/03 07:06:40;;;;;;;3.25;1.85;;;15.90;83.40;;;;;;5134998;27;20557;-76
2021/09/03 07:09:06;;;;;;;2.20;1.67;;;16.00;83.20;;;;;;5134818;27;20023;-76
2021/09/03 07:11:33;;;;;;;1.55;1.20;;;16.10;83.20;;;;;;5133863;27;20030;-77
2021/09/03 07:14:01;;;;;;;2.28;1.60;;;16.10;83.20;;;;;;5133867;27;20053;-76
2021/09/03 07:16:27;;;;;;;2.40;1.60;;;16.20;83.20;;;;;;5115730;27;20027;-77
2021/09/03 07:18:53;;;;;;;3.20;1.90;;;16.20;83.20;;;;;;5134181;27;20487;-76
2021/09/03 07:21:18;;;;;;;2.20;1.67;;;16.30;83.20;;;;;;5134665;27;20111;-77
2021/09/03 07:23:44;;;;;;;2.63;1.92;;;16.40;83.20;;;;;;5134626;27;20061;-74
2021/09/03 07:26:09;;;;;;;2.92;1.85;;;16.50;83.10;;;;;;5133724;27;20035;-76
2021/09/03 07:28:35;;;;;;;2.78;2.20;;;16.60;83.10;;;;;;5134233;27;20031;-77
2021/09/03 07:31:01;;;;;;;2.20;1.73;;;16.70;83.10;;;;;;5133412;27;20102;-76
2021/09/03 07:33:26;;;;;;;2.63;1.63;;;16.70;83.00;;;;;;5134383;27;20054;-76
2021/09/03 07:35:52;;;;;;;1.85;1.50;;;16.80;83.10;;;;;;5134442;27;20030;-77
2021/09/03 07:38:18;;;;;;;2.13;1.35;;;16.90;83.00;;;;;;5133975;27;20037;-76
2021/09/03 07:40:44;;;;;;;2.35;1.80;;;17.00;83.00;;;;;;5134323;27;20023;-76
2021/09/03 07:43:10;;;;;;;2.80;1.80;;;17.00;83.00;;;;;;5114942;28;20035;-76
2021/09/03 07:45:37;;;;;;;3.08;1.85;;;17.10;83.00;;;;;;5134354;27;20524;-77
2021/09/03 07:48:03;;;;;;;2.15;1.70;;;17.20;82.90;;;;;;5133141;27;20107;-76
2021/09/03 07:50:29;;;;;;;2.17;1.58;;;17.30;82.90;;;;;;5115863;28;20463;-75
2021/09/03 07:52:54;;;;;;;2.75;1.63;;;17.40;82.80;;;;;;5133780;27;20023;-77
2021/09/03 07:55:21;;;;;;;2.08;1.80;;;17.50;82.70;;;;;;5134237;28;20375;-76
2021/09/03 07:57:46;;;;;;;3.30;1.95;;;17.60;82.70;;;;;;5134293;28;20042;-77
2021/09/03 08:00:12;;;;;;;1.38;1.27;;;17.70;82.60;;;;;;5133399;28;20383;-79
2021/09/03 08:02:38;;;;;;;1.55;1.40;;;17.80;82.60;;;;;;5134111;28;20031;-78
2021/09/03 08:05:07;;;;;;;2.30;1.60;;;17.90;82.60;;;;;;5134110;28;20019;-76
2021/09/03 08:07:32;;;;;;;1.88;1.42;;;18.00;82.50;;;;;;5111739;28;20031;-79
2021/09/03 08:09:58;;;;;;;1.85;1.60;;;18.00;82.40;;;;;;5115576;28;20015;-78
2021/09/03 08:12:24;;;;;;;1.52;1.33;;;18.10;82.30;;;;;;5134130;28;20487;-76
2021/09/03 08:14:50;;;;;;;2.05;1.60;;;18.20;82.30;;;;;;5133189;28;20026;-75
2021/09/03 08:17:16;;;;;;;2.42;1.60;;;18.30;82.20;;;;;;5115420;28;20027;-76
2021/09/03 08:19:42;;;;;;;2.20;1.70;;;18.40;82.30;;;;;;5133649;28;20050;-76
2021/09/03 08:22:07;;;;;;;2.00;1.40;;;18.50;82.30;;;;;;5133508;28;20118;-77
2021/09/03 08:24:33;;;;;;;2.78;1.80;;;18.60;82.20;;;;;;5132400;28;20075;-76
2021/09/03 08:26:59;;;;;;;1.25;1.15;;;18.70;82.10;;;;;;5134050;28;20033;-76
2021/09/03 08:29:24;;;;;;;2.97;1.85;;;18.70;82.10;;;;;;5133899;28;20015;-77
2021/09/03 08:31:50;;;;;;;1.60;1.17;;;18.80;82.00;;;;;;5133735;28;20031;-75
2021/09/03 08:34:16;;;;;;;2.00;1.40;;;18.90;82.10;;;;;;5133831;28;20035;-75
2021/09/03 08:36:42;;;;;;;1.67;1.23;;;19.00;82.00;;;;;;5133385;28;20433;-75
2021/09/03 08:39:08;;;;;;;1.73;1.38;;;19.10;81.90;;;;;;5133872;28;20094;-77
2021/09/03 08:41:36;;;;;;;2.42;1.67;;;19.10;81.80;;;;;;5113817;28;20031;-75
2021/09/03 08:44:01;;;;;;;2.05;1.38;;;19.20;81.80;;;;;;5133855;28;20460;-76
2021/09/03 08:46:27;;;;;;;1.35;1.25;;;19.30;81.70;;;;;;5133798;28;20030;-76
2021/09/03 08:48:53;;;;;;;2.75;1.60;;;19.30;81.70;;;;;;5133790;28;20034;-76
2021/09/03 08:51:19;;;;;;;2.78;1.70;;;19.40;81.70;;;;;;5133138;28;20031;-76
2021/09/03 08:53:46;;;;;;;1.45;1.35;;;19.40;81.70;;;;;;5135402;27;20042;-76
2021/09/03 08:56:12;;;;;;;1.50;1.38;;;19.50;81.70;;;;;;5137575;27;20106;-76
2021/09/03 08:58:38;;;;;;;1.35;1.20;;;19.60;81.60;;;;;;5136893;27;20077;-75
2021/09/03 09:01:10;;;;;;;1.55;1.35;;;19.60;81.50;;;;;;5137042;27;20426;-75
2021/09/03 09:03:44;;;;;;;2.65;1.30;;;19.80;81.50;;;;;;5137685;27;20084;-76
2021/09/03 09:06:11;;;;;;;1.25;1.15;;;19.90;81.30;;;;;;5136799;27;20106;-75
2021/09/03 09:08:38;;;;;;;1.77;1.15;;;19.90;81.30;;;;;;5137408;27;20030;-75
2021/09/03 09:11:16;;;;;;;1.50;1.30;;;20.00;81.20;;;;;;5137164;27;20478;-76
2021/09/03 09:13:44;;;;;;;1.42;1.30;;;20.20;81.10;;;;;;5137349;27;20022;-76
2021/09/03 09:16:13;;;;;;;1.53;1.13;;;20.20;81.00;;;;;;5137231;27;20409;-76
2021/09/03 09:18:38;;;;;;;1.17;1.00;;;20.30;81.00;;;;;;5116799;27;20150;-77
2021/09/03 09:21:20;;;;;;;1.50;1.33;;;20.30;81.00;;;;;;5118370;27;20059;-76
2021/09/03 09:23:53;;;;;;;2.88;1.77;;;20.40;80.90;;;;;;5136847;27;20059;-74
2021/09/03 09:26:21;;;;;;;1.48;1.13;;;20.40;80.90;;;;;;5137018;27;20015;-75
2021/09/03 09:28:47;;;;;;;1.20;1.10;;;20.50;80.80;;;;;;5136644;27;20038;-76
2021/09/03 09:31:35;;;;;;;1.25;1.15;;;20.70;80.70;;;;;;5137145;27;20015;-75
2021/09/03 09:34:21;;;;;;;1.48;1.30;;;20.80;80.40;;;;;;5136709;27;20094;-76
2021/09/03 09:36:50;;;;;;;1.90;1.30;;;20.80;80.40;;;;;;5117747;27;20033;-75
2021/09/03 09:39:16;;;;;;;1.37;1.10;;;20.90;80.40;;;;;;5136698;27;20060;-77
2021/09/03 09:41:44;;;;;;;2.38;1.55;;;20.90;80.20;;;;;;5136190;27;20044;-78
2021/09/03 09:44:10;;;;;;;1.48;1.30;;;21.00;80.20;;;;;;5136445;27;20023;-76
2021/09/03 09:46:36;;;;;;;0.82;0.82;;;21.00;80.30;;;;;;5136520;27;20098;-75
2021/09/03 09:49:03;;;;;;;1.10;1.00;;;21.10;80.20;;;;;;5117396;27;20106;-78
2021/09/03 09:51:45;;;;;;;1.45;1.35;;;21.10;80.10;;;;;;5136579;27;20379;-76
2021/09/03 09:54:16;;;;;;;1.40;1.27;;;21.20;80.10;;;;;;5136293;27;20467;-77
2021/09/03 09:56:53;;;;;;;1.13;1.02;;;21.20;80.00;;;;;;5136357;27;20030;-79
2021/09/03 09:59:21;;;;;;;1.30;1.20;;;21.30;80.00;;;;;;5136606;27;20142;-79
2021/09/03 10:01:49;;;;;;;0.80;0.80;;;21.40;79.90;;;;;;5117134;27;20043;-78
2021/09/03 10:04:17;;;;;;;1.55;1.30;;;21.50;79.80;;;;;;5135022;27;20472;-75
2021/09/03 10:06:44;;;;;;;1.70;1.35;;;21.60;79.70;;;;;;5117274;27;20058;-78
2021/09/03 10:09:13;;;;;;;1.95;1.48;;;21.60;79.60;;;;;;5135997;27;20027;-75
2021/09/03 10:11:41;;;;;;;1.70;1.40;;;21.70;79.50;;;;;;5117709;27;20468;-76
2021/09/03 10:14:08;;;;;;;3.22;1.40;;;21.70;79.50;;;;;;5135840;27;20035;-76
2021/09/03 10:16:34;;;;;;;1.20;1.10;;;21.70;79.50;;;;;;5135608;27;20070;-74
2021/09/03 10:19:03;;;;;;;1.42;1.08;;;21.80;79.50;;;;;;5135393;27;20047;-74
2021/09/03 10:21:30;;;;;;;1.95;1.17;;;21.80;79.40;;;;;;5135844;27;20050;-75
2021/09/03 10:24:23;;;;;;;1.98;1.25;;;21.80;79.30;;;;;;5135679;27;20042;-75
2021/09/03 10:26:52;;;;;;;1.08;1.00;;;21.80;79.30;;;;;;5135702;27;20023;-74
2021/09/03 10:29:19;;;;;;;1.47;1.13;;;21.90;79.30;;;;;;5135572;27;20020;-76
2021/09/03 10:32:06;;;;;;;1.20;1.10;;;22.00;79.20;;;;;;5135184;27;20024;-78
2021/09/03 10:34:42;;;;;;;1.20;1.10;;;22.10;78.90;;;;;;5135163;27;20019;-75
2021/09/03 10:37:20;;;;;;;1.27;1.05;;;22.10;78.90;;;;;;5135447;27;20019;-75
2021/09/03 10:39:57;;;;;;;1.63;1.33;;;22.20;78.80;;;;;;5116919;27;20425;-75
2021/09/03 10:42:35;;;;;;;1.30;1.20;;;22.30;78.60;;;;;;5135353;27;20066;-75
2021/09/03 10:45:10;;;;;;;1.35;1.25;;;22.30;78.70;;;;;;5135454;27;20022;-75
2021/09/03 10:47:43;;;;;;;1.23;1.13;;;22.30;78.70;;;;;;5135193;27;20096;-75
2021/09/03 10:50:34;;;;;;;1.50;1.40;;;22.40;78.60;;;;;;5134895;27;20031;-75
2021/09/03 10:53:02;;;;;;;1.65;1.33;;;22.40;78.50;;;;;;5135394;27;20533;-75
2021/09/03 10:55:58;;;;;;;1.50;1.10;;;22.40;78.50;;;;;;5135278;27;20034;-75
2021/09/03 10:58:35;;;;;;;1.55;1.23;;;22.40;78.50;;;;;;5134986;27;20448;-75
2021/09/03 11:01:27;;;;;;;2.00;1.80;;;22.40;78.50;;;;;;5135091;27;20023;-75
2021/09/03 11:04:01;;;;;;;2.47;1.38;;;22.50;78.40;;;;;;5135017;27;20027;-74
2021/09/03 11:06:30;;;;;;;1.05;1.02;;;22.50;78.30;;;;;;5134868;27;20038;-76
2021/09/03 11:09:01;;;;;;;1.35;1.25;;;22.50;78.50;;;;;;5135004;27;20030;-75
2021/09/03 11:11:37;;;;;;;1.10;1.10;;;22.50;78.30;;;;;;5134946;27;20023;-76
2021/09/03 11:14:24;;;;;;;1.25;1.10;;;22.60;78.20;;;;;;5134876;27;20027;-75
2021/09/03 11:16:54;;;;;;;1.75;1.33;;;22.70;78.00;;;;;;5113451;28;20468;-78
2021/09/03 11:19:25;;;;;;;1.25;1.15;;;22.80;77.90;;;;;;5114008;28;20499;-75
2021/09/03 11:21:54;;;;;;;2.08;1.10;;;22.90;77.60;;;;;;5114096;28;20483;-76
2021/09/03 11:24:22;;;;;;;1.55;1.10;;;22.90;77.50;;;;;;5095788;28;20460;-76
2021/09/03 11:26:49;;;;;;;1.15;1.00;;;23.00;77.40;;;;;;5113729;28;20028;-76
2021/09/03 11:29:22;;;;;;;2.10;1.25;;;23.10;77.30;;;;;;5114221;28;20023;-79
2021/09/03 11:32:12;;;;;;;0.70;0.70;;;23.10;77.20;;;;;;5113520;28;20019;-79
2021/09/03 11:34:52;;;;;;;1.30;1.02;;;23.20;77.10;;;;;;5113944;28;20026;-80
2021/09/03 11:37:23;;;;;;;1.15;1.05;;;23.20;76.90;;;;;;5113807;28;20084;-80
2021/09/03 11:39:51;;;;;;;1.85;1.42;;;23.20;76.90;;;;;;5113995;28;20511;-77
2021/09/03 11:42:21;;;;;;;1.55;1.30;;;23.40;76.70;;;;;;5113786;28;20039;-78
2021/09/03 11:44:58;;;;;;;1.33;1.23;;;23.50;76.60;;;;;;5120362;27;20031;-78
2021/09/03 11:47:32;;;;;;;1.30;1.20;;;23.50;77.10;;;;;;5115941;28;20379;-79
2021/09/03 11:49:58;;;;;;;1.10;1.00;;;23.60;76.30;;;;;;5134139;27;20031;-78
2021/09/03 11:52:29;;;;;;;1.40;1.20;;;23.60;76.30;;;;;;5134283;27;20585;-78
2021/09/03 11:54:56;;;;;;;2.15;1.40;;;23.80;76.10;;;;;;5134134;27;20455;-78
2021/09/03 11:57:22;;;;;;;2.13;1.42;;;23.80;76.00;;;;;;5134213;28;20026;-78
2021/09/03 11:59:56;;;;;;;1.10;1.00;;;23.80;76.00;;;;;;5133719;28;20015;-77
2021/09/03 12:02:23;;;;;;;3.40;1.65;;;23.90;75.90;;;;;;5134214;28;20035;-78
2021/09/03 12:04:49;;;;;;;2.65;1.85;;;23.90;75.90;;;;;;5115754;28;20027;-77
2021/09/03 12:07:19;;;;;;;2.08;1.75;;;24.00;75.70;;;;;;5134122;28;20027;-77
2021/09/03 12:09:45;;;;;;;2.63;2.00;;;24.20;75.30;;;;;;5134170;28;20023;-77
2021/09/03 12:12:11;;;;;;;1.92;1.50;;;24.40;75.00;;;;;;5134232;28;20028;-79
2021/09/03 12:14:37;;;;;;;2.08;1.70;;;24.60;74.90;;;;;;5133300;28;20512;-77
2021/09/03 12:17:03;;;;;;;1.63;1.42;;;24.80;74.50;;;;;;5115775;28;20118;-78
2021/09/03 12:19:29;;;;;;;1.50;1.40;;;24.90;74.40;;;;;;5133756;28;20067;-78
2021/09/03 12:21:55;;;;;;;1.48;1.35;;;25.10;74.30;;;;;;5133745;28;20065;-77
2021/09/03 12:24:22;;;;;;;3.60;1.90;;;25.20;74.10;;;;;;5134009;28;20054;-78
2021/09/03 12:26:51;;;;;;;1.55;1.45;;;25.40;73.90;;;;;;5133897;28;20027;-79
2021/09/03 12:29:25;;;;;;;1.95;1.70;;;25.70;73.80;;;;;;5135714;27;20023;-78
2021/09/03 12:31:55;;;;;;;1.40;1.30;;;26.00;73.60;;;;;;5137706;27;20019;-79
2021/09/03 12:34:26;;;;;;;1.88;1.30;;;26.40;73.20;;;;;;5138052;27;20027;-78
2021/09/03 12:37:10;;;;;;;1.25;1.15;;;26.60;72.60;;;;;;5137775;27;20069;-79
2021/09/03 12:39:39;;;;;;;1.30;1.20;;;26.70;72.90;;;;;;5138015;27;20022;-78
2021/09/03 12:42:15;;;;;;;1.42;1.23;;;26.80;72.60;;;;;;5137972;27;20062;-79
2021/09/03 12:44:41;;;;;;;1.35;1.20;;;27.10;72.40;;;;;;5136859;27;20015;-78
2021/09/03 12:47:07;;;;;;;1.38;1.27;;;27.20;72.20;;;;;;5137958;27;20030;-79
2021/09/03 12:49:40;;;;;;;1.77;1.30;;;27.40;72.20;;;;;;5137693;27;20443;-77